»·PEaware :: N27JP KBUR-KLAS

N27JP :: KBUR-KLAS

FLIGHT INFORMATION

Flight Status: Arrived
Operator: Privately registered:
United States
More flights under this callsign
Pilot: Weston J. (31543)
Aircraft: CESSNA 172 SKYHAWK
(C172)
More flights by this aircraft type
Origin: KBUR Bob Hope-Burbank
United States
Destination: KLAS McCarran Intl
United States
More flights between these airports :: More routes between these airports
Route: VNY3 DAG CRESO4
File this flight plan on PilotEdge
Remarks:
Altitude:
(Current/Filed)
11,000ft
Speed:
(Current/Filed)
110kts
Departed: 27-Dec-20 09:11 AM
Arrived: 27-Dec-20 11:09 AM
Distance/Time
Traveled:
195nm/1:58
Distance/Time
To Go:
Arrived

Flight Plot

Page will automatically refresh every two minutes.

Flight plan parsing failed; only flown route is shown


Map Options




Map Legend


Flown Route
Filed Route
Departure Airport
Arrival Airport
Navaid (VOR, NDB)
Fix

Horizontal Profiles

Position Reports

Time Latitude Longitude Heading Altitude Ground
Speed
27-Dec-20 08:40 34.200211 -118.358869 280 725ft 0kts
27-Dec-20 08:41 34.200211 -118.358869 280 725ft 0kts
27-Dec-20 08:42 34.200211 -118.358869 280 725ft 0kts
27-Dec-20 08:43 34.200211 -118.358869 280 725ft 0kts
27-Dec-20 08:44 34.200211 -118.358869 280 725ft 0kts
27-Dec-20 08:45 34.200211 -118.358869 280 725ft 0kts
27-Dec-20 08:46 34.200211 -118.358869 280 725ft 0kts
27-Dec-20 08:47 34.200211 -118.358869 280 725ft 0kts
27-Dec-20 08:48 34.200211 -118.358869 280 725ft 0kts
27-Dec-20 08:49 34.200211 -118.358869 280 725ft 0kts
27-Dec-20 08:50 34.200215 -118.358892 280 725ft 0kts
27-Dec-20 08:51 34.200215 -118.358892 280 725ft 0kts
27-Dec-20 08:52 34.200215 -118.358892 280 725ft 0kts
27-Dec-20 08:53 34.200215 -118.358892 280 725ft 0kts
27-Dec-20 08:54 34.200215 -118.358892 280 725ft 0kts
27-Dec-20 08:55 34.200215 -118.358892 280 725ft 0kts
27-Dec-20 08:56 34.200215 -118.358892 280 725ft 0kts
27-Dec-20 08:57 34.200215 -118.358892 280 725ft 0kts
27-Dec-20 08:58 34.200215 -118.358892 280 725ft 0kts
27-Dec-20 08:59 34.200215 -118.358892 280 725ft 0kts
27-Dec-20 09:00 34.200215 -118.358892 280 725ft 0kts
27-Dec-20 09:01 34.200215 -118.358892 280 725ft 0kts
27-Dec-20 09:03 34.200215 -118.358892 280 725ft 0kts
27-Dec-20 09:04 34.199869 -118.359013 166 724ft 5kts
27-Dec-20 09:05 34.199046 -118.360282 210 724ft 11kts
27-Dec-20 09:06 34.199089 -118.365145 271 730ft 17kts
27-Dec-20 09:07 34.198726 -118.368924 181 733ft 0kts
27-Dec-20 09:08 34.198726 -118.368924 181 733ft 0kts
27-Dec-20 09:09 34.198726 -118.368924 181 733ft 0kts
27-Dec-20 09:10 34.197890 -118.366961 90 728ft 39kts
27-Dec-20 09:11 34.193208 -118.339372 137 1418ft 100kts
27-Dec-20 09:12 34.169477 -118.350207 222 2354ft 95kts
27-Dec-20 09:13 34.155709 -118.366001 232 3111ft 88kts
27-Dec-20 09:14 34.162034 -118.383461 344 3779ft 83kts
27-Dec-20 09:15 34.186572 -118.387009 347 4794ft 72kts
27-Dec-20 09:16 34.211942 -118.389632 348 5577ft 86kts
27-Dec-20 09:17 34.236087 -118.397968 328 6181ft 95kts
27-Dec-20 09:18 34.259935 -118.410525 331 6872ft 88kts
27-Dec-20 09:18 34.278597 -118.419149 331 7414ft 85kts
27-Dec-20 09:20 34.305125 -118.430554 332 8059ft 91kts
27-Dec-20 09:20 34.325395 -118.438869 332 8470ft 93kts
27-Dec-20 09:21 34.350004 -118.448895 331 8981ft 93kts
27-Dec-20 09:23 34.379689 -118.458386 6 9462ft 109kts
27-Dec-20 09:23 34.398667 -118.436269 44 9773ft 114kts
27-Dec-20 09:24 34.418429 -118.406094 45 10180ft 114kts
27-Dec-20 09:25 34.437915 -118.375415 46 10623ft 110kts
27-Dec-20 09:26 34.456846 -118.345504 47 11050ft 116kts
27-Dec-20 09:27 34.478551 -118.310104 50 10988ft 137kts
27-Dec-20 09:28 34.500636 -118.274377 49 10998ft 130kts
27-Dec-20 09:30 34.527083 -118.232118 49 11005ft 136kts
27-Dec-20 09:30 34.546296 -118.201359 49 11009ft 136kts
27-Dec-20 09:31 34.569457 -118.164274 49 11011ft 137kts
27-Dec-20 09:32 34.592640 -118.127126 49 11009ft 137kts
27-Dec-20 09:33 34.615795 -118.089988 49 11008ft 137kts
27-Dec-20 09:34 34.632471 -118.048862 79 11006ft 137kts
27-Dec-20 09:35 34.638439 -118.003016 82 11006ft 137kts
27-Dec-20 09:36 34.643664 -117.956896 82 11005ft 137kts
27-Dec-20 09:37 34.648737 -117.910719 82 11005ft 137kts
27-Dec-20 09:38 34.653759 -117.864610 82 11003ft 137kts
27-Dec-20 09:39 34.658687 -117.818892 82 10992ft 136kts
27-Dec-20 09:40 34.663676 -117.772938 82 10993ft 137kts
27-Dec-20 09:41 34.674054 -117.727749 71 10994ft 138kts
27-Dec-20 09:42 34.685421 -117.683059 71 10995ft 138kts
27-Dec-20 09:43 34.696875 -117.638307 71 10997ft 138kts
27-Dec-20 09:44 34.708352 -117.593456 71 11000ft 138kts
27-Dec-20 09:45 34.719783 -117.548718 71 11000ft 138kts
27-Dec-20 09:46 34.731265 -117.503710 71 11000ft 138kts
27-Dec-20 09:47 34.742675 -117.458910 71 11000ft 138kts
27-Dec-20 09:48 34.754123 -117.413881 71 11000ft 138kts
27-Dec-20 09:49 34.765623 -117.368573 71 11000ft 138kts
27-Dec-20 09:50 34.777102 -117.323281 72 10998ft 138kts
27-Dec-20 09:51 34.788473 -117.278338 72 11000ft 138kts
27-Dec-20 09:52 34.799838 -117.233333 72 11003ft 138kts
27-Dec-20 09:53 34.811249 -117.188065 72 11005ft 138kts
27-Dec-20 09:54 34.822622 -117.142865 72 11009ft 138kts
27-Dec-20 09:55 34.834044 -117.097392 73 11012ft 138kts
27-Dec-20 09:56 34.845457 -117.051863 73 11014ft 139kts
27-Dec-20 09:57 34.856863 -117.006284 73 11016ft 139kts
27-Dec-20 09:58 34.868307 -116.960466 73 11010ft 140kts
27-Dec-20 09:59 34.879787 -116.914419 73 11009ft 141kts
27-Dec-20 10:00 34.891306 -116.868118 72 11009ft 141kts
27-Dec-20 10:01 34.902752 -116.822055 72 11009ft 140kts
27-Dec-20 10:02 34.914170 -116.776031 72 11009ft 140kts
27-Dec-20 10:03 34.925522 -116.730198 71 11009ft 139kts
27-Dec-20 10:04 34.936835 -116.684443 71 11009ft 138kts
27-Dec-20 10:05 34.948017 -116.639135 71 11009ft 137kts
27-Dec-20 10:06 34.959101 -116.594150 70 11008ft 137kts
27-Dec-20 10:07 34.974973 -116.552019 58 11007ft 135kts
27-Dec-20 10:08 34.992868 -116.511383 57 11005ft 133kts
27-Dec-20 10:09 35.010644 -116.471322 57 11003ft 132kts
27-Dec-20 10:10 35.028189 -116.431803 57 11001ft 130kts
27-Dec-20 10:11 35.045536 -116.392692 57 10999ft 129kts
27-Dec-20 10:12 35.062734 -116.353881 57 10999ft 129kts
27-Dec-20 10:13 35.079938 -116.315008 58 10997ft 129kts
27-Dec-20 10:14 35.097139 -116.276094 58 10998ft 128kts
27-Dec-20 10:15 35.114289 -116.237244 58 10998ft 129kts
27-Dec-20 10:16 35.131430 -116.198369 58 10998ft 129kts
27-Dec-20 10:17 35.148547 -116.159504 58 10998ft 129kts
27-Dec-20 10:18 35.165719 -116.120471 58 10998ft 129kts
27-Dec-20 10:19 35.182831 -116.081530 58 10998ft 129kts
27-Dec-20 10:20 35.199938 -116.042549 58 10998ft 129kts
27-Dec-20 10:21 35.217066 -116.003486 58 10998ft 129kts
27-Dec-20 10:22 35.234137 -115.964500 58 10998ft 129kts
27-Dec-20 10:23 35.251327 -115.925190 58 10980ft 129kts
27-Dec-20 10:24 35.268450 -115.886000 58 10981ft 129kts
27-Dec-20 10:25 35.285462 -115.847019 58 10983ft 128kts
27-Dec-20 10:26 35.302444 -115.808065 57 10985ft 128kts
27-Dec-20 10:27 35.322941 -115.772415 43 10986ft 127kts
27-Dec-20 10:28 35.346412 -115.740715 43 10987ft 126kts
27-Dec-20 10:29 35.365872 -115.714708 42 10988ft 126kts
27-Dec-20 10:30 35.383406 -115.691326 43 10989ft 128kts
27-Dec-20 10:31 35.405098 -115.662325 43 10990ft 129kts
27-Dec-20 10:32 35.434461 -115.623047 44 10799ft 136kts
27-Dec-20 10:33 35.456171 -115.593935 44 10546ft 137kts
27-Dec-20 10:34 35.474840 -115.568926 44 10328ft 138kts
27-Dec-20 10:35 35.497470 -115.538558 45 9996ft 139kts
27-Dec-20 10:36 35.520590 -115.507666 44 9989ft 132kts
27-Dec-20 10:37 35.558617 -115.456753 44 9989ft 129kts
27-Dec-20 10:38 35.580682 -115.427143 44 9990ft 128kts
27-Dec-20 10:39 35.603800 -115.396311 44 10023ft 145kts
27-Dec-20 10:40 35.628736 -115.362350 45 10021ft 154kts
27-Dec-20 10:41 35.654216 -115.327561 45 10016ft 156kts
27-Dec-20 10:42 35.683560 -115.287716 47 9430ft 155kts
27-Dec-20 10:43 35.712054 -115.249233 47 8625ft 150kts
27-Dec-20 10:44 35.739662 -115.212161 46 8164ft 150kts
27-Dec-20 10:46 35.768269 -115.173509 45 8015ft 148kts
27-Dec-20 10:47 35.797282 -115.135754 44 7780ft 152kts
27-Dec-20 10:48 35.825574 -115.097151 42 7475ft 150kts
27-Dec-20 10:49 35.852072 -115.061011 41 7183ft 147kts
27-Dec-20 10:50 35.878972 -115.024189 39 7002ft 138kts
27-Dec-20 10:51 35.904017 -114.990002 37 7119ft 131kts
27-Dec-20 10:52 35.927953 -114.957094 37 6998ft 123kts
27-Dec-20 10:53 35.950758 -114.925895 35 6996ft 122kts
27-Dec-20 10:54 35.973212 -114.895086 37 6997ft 119kts
27-Dec-20 10:55 35.996080 -114.864513 35 6867ft 127kts
27-Dec-20 10:56 36.021809 -114.832453 36 6270ft 132kts
27-Dec-20 10:57 36.047869 -114.800819 34 5667ft 129kts
27-Dec-20 10:58 36.069005 -114.815200 281 5104ft 109kts
27-Dec-20 10:59 36.071811 -114.850731 272 4997ft 102kts
27-Dec-20 10:59 36.072489 -114.880542 271 4996ft 104kts
27-Dec-20 11:01 36.072833 -114.922589 269 4995ft 104kts
27-Dec-20 11:02 36.073101 -114.958975 269 4717ft 102kts
27-Dec-20 11:02 36.073279 -114.987626 268 4282ft 102kts
27-Dec-20 11:03 36.073443 -115.020846 267 3755ft 94kts
27-Dec-20 11:04 36.073504 -115.048517 265 3311ft 73kts
27-Dec-20 11:05 36.073546 -115.073317 266 2868ft 75kts
27-Dec-20 11:06 36.073678 -115.098089 264 2531ft 72kts
27-Dec-20 11:07 36.073671 -115.121694 264 2159ft 62kts
27-Dec-20 11:08 36.073656 -115.135861 270 2070ft 23kts
27-Dec-20 11:09 36.074737 -115.134439 66 2063ft 0kts
27-Dec-20 11:10 36.076315 -115.133864 1 2059ft 16kts
27-Dec-20 11:11 36.078280 -115.127260 91 2039ft 35kts
27-Dec-20 11:12 36.079711 -115.125627 93 2033ft 0kts

Navigation Log

Ident Type
Flight plan parsing failed, navigation log unavailable